Time,TemperatureF,DewpointF,PressureIn,WindDirection,WindDirectionDegrees,WindSpeedMPH,WindSpeedGustMPH,Humidity,HourlyPrecipIn,Conditions,Clouds,dailyrainin,SoftwareType,DateUTC
2013-01-11 00:01:00,29.4,27.1,30.49,SSE,149,0.0,0.0,91,0.00,,,0.00,WeatherDisplay:10.37,2013-01-11 05:01:00,
2013-01-11 00:03:00,29.4,27.1,30.49,SSE,149,0.0,0.0,91,0.00,CLR,,0.00,WeatherDisplay:10.37,2013-01-11 05:03:00,
2013-01-11 00:08:00,29.4,27.1,30.48,SE,131,0.0,0.0,91,0.00,,,0.00,WeatherDisplay:10.37,2013-01-11 05:08:00,
2013-01-11 00:13:00,29.8,27.5,30.47,SE,132,0.0,0.0,91,0.00,,,0.00,WeatherDisplay:10.37,2013-01-11 05:13:00,
2013-01-11 00:18:00,30.0,27.4,30.47,SE,134,0.0,0.0,90,0.00,,,0.00,WeatherDisplay:10.37,2013-01-11 05:18:00,
2013-01-11 00:23:00,30.2,27.6,30.47,SE,141,0.0,0.0,90,0.00,,,0.00,WeatherDisplay:10.37,2013-01-11 05:23:00,
2013-01-11 00:28:00,30.4,27.8,30.47,South,169,0.0,0.0,90,0.00,,,0.00,WeatherDisplay:10.37,2013-01-11 05:28:00,
2013-01-11 00:33:00,30.6,28.0,30.47,ESE,122,0.0,0.0,90,0.00,,,0.00,WeatherDisplay:10.37,2013-01-11 05:33:00,
2013-01-11 00:38:00,30.7,27.8,30.47,SE,138,0.0,0.0,89,0.00,,,0.00,WeatherDisplay:10.37,2013-01-11 05:38:00,
2013-01-11 00:43:00,30.8,27.9,30.47,SE,130,0.0,0.0,89,0.00,,,0.00,WeatherDisplay:10.37,2013-01-11 05:43:00,
2013-01-11 00:48:00,30.9,28.0,30.46,SSE,161,0.0,0.0,89,0.00,,,0.00,WeatherDisplay:10.37,2013-01-11 05:48:00,
2013-01-11 00:53:00,31.0,28.1,30.46,SSE,155,0.0,0.0,89,0.00,,,0.00,WeatherDisplay:10.37,2013-01-11 05:53:00,
2013-01-11 00:58:00,31.0,28.1,30.46,SE,137,0.0,0.0,89,0.00,,,0.00,WeatherDisplay:10.37,2013-01-11 05:58:00,
2013-01-11 01:03:00,30.9,28.0,30.45,SE,137,0.0,0.0,89,0.00,,,0.00,WeatherDisplay:10.37,2013-01-11 06:03:00,
2013-01-11 01:08:00,30.9,28.0,30.45,SE,136,0.0,0.0,89,0.00,,,0.00,WeatherDisplay:10.37,2013-01-11 06:08:00,
2013-01-11 01:13:00,31.0,28.1,30.44,SE,136,0.0,0.0,89,0.00,,,0.00,WeatherDisplay:10.37,2013-01-11 06:13:00,
2013-01-11 01:18:00,31.0,28.1,30.44,SE,136,0.0,0.0,89,0.00,,,0.00,WeatherDisplay:10.37,2013-01-11 06:18:00,
2013-01-11 01:23:00,31.1,28.2,30.44,SE,137,0.0,0.0,89,0.00,,,0.00,WeatherDisplay:10.37,2013-01-11 06:23:00,
2013-01-11 01:28:00,31.0,28.1,30.44,SE,141,0.0,0.0,89,0.00,,,0.00,WeatherDisplay:10.37,2013-01-11 06:28:00,
2013-01-11 01:33:00,31.2,28.3,30.43,SE,146,0.0,0.0,89,0.00,,,0.00,WeatherDisplay:10.37,2013-01-11 06:33:00,
2013-01-11 01:38:00,31.4,28.3,30.44,SE,143,1.1,0.0,88,0.00,,,0.00,WeatherDisplay:10.37,2013-01-11 06:38:00,
2013-01-11 01:43:00,31.7,28.6,30.44,SSE,156,2.3,2.3,88,0.00,,,0.00,WeatherDisplay:10.37,2013-01-11 06:43:00,
2013-01-11 01:48:00,32.1,28.7,30.43,SE,142,2.3,2.3,87,0.00,,,0.00,WeatherDisplay:10.37,2013-01-11 06:48:00,
2013-01-11 01:53:00,32.1,28.7,30.43,SE,143,1.1,1.1,87,0.00,,,0.00,WeatherDisplay:10.37,2013-01-11 06:53:00,
2013-01-11 01:58:00,32.3,28.9,30.43,SSE,155,0.0,0.0,87,0.00,,,0.00,WeatherDisplay:10.37,2013-01-11 06:58:00,
2013-01-11 02:03:00,32.3,28.9,30.43,SE,144,1.1,0.0,87,0.00,,,0.00,WeatherDisplay:10.37,2013-01-11 07:03:00,
2013-01-11 02:08:00,32.3,28.6,30.42,SSE,160,0.0,0.0,86,0.00,,,0.00,WeatherDisplay:10.37,2013-01-11 07:08:00,
2013-01-11 02:13:00,32.2,28.8,30.42,SE,127,0.0,0.0,87,0.00,,,0.00,WeatherDisplay:10.37,2013-01-11 07:13:00,
2013-01-11 02:18:00,32.3,28.6,30.42,SE,135,0.0,0.0,86,0.00,,,0.00,WeatherDisplay:10.37,2013-01-11 07:18:00,
2013-01-11 02:23:00,32.2,28.8,30.41,SE,125,0.0,0.0,87,0.00,,,0.00,WeatherDisplay:10.37,2013-01-11 07:23:00,
2013-01-11 02:28:00,32.1,28.7,30.42,SSE,149,0.0,0.0,87,0.00,,,0.00,WeatherDisplay:10.37,2013-01-11 07:28:00,
2013-01-11 02:33:00,32.3,28.9,30.41,SSE,159,0.0,0.0,87,0.00,,,0.00,WeatherDisplay:10.37,2013-01-11 07:33:00,
2013-01-11 02:38:00,32.3,28.9,30.41,SE,131,0.0,0.0,87,0.00,,,0.00,WeatherDisplay:10.37,2013-01-11 07:38:00,
2013-01-11 02:43:00,32.5,28.8,30.40,SSE,155,0.0,0.0,86,0.00,,,0.00,WeatherDisplay:10.37,2013-01-11 07:43:00,
2013-01-11 02:48:00,32.7,29.0,30.40,SSE,165,1.1,1.1,86,0.00,,,0.00,WeatherDisplay:10.37,2013-01-11 07:48:00,
2013-01-11 02:54:00,32.7,28.7,30.39,South,184,1.1,1.1,85,0.00,,,0.00,WeatherDisplay:10.37,2013-01-11 07:54:00,
2013-01-11 02:59:00,33.0,29.0,30.39,SE,140,2.3,2.3,85,0.00,,,0.00,WeatherDisplay:10.37,2013-01-11 07:59:00,
2013-01-11 03:04:00,33.3,29.0,30.38,SE,146,3.5,3.5,84,0.00,,,0.00,WeatherDisplay:10.37,2013-01-11 08:04:00,
2013-01-11 03:09:00,33.4,28.8,30.38,SSW,210,2.3,2.3,83,0.00,,,0.00,WeatherDisplay:10.37,2013-01-11 08:09:00,
2013-01-11 03:14:00,33.5,28.9,30.38,SE,137,1.1,1.1,83,0.00,,,0.00,WeatherDisplay:10.37,2013-01-11 08:14:00,
2013-01-11 03:19:00,33.6,29.0,30.38,SSE,163,3.5,3.5,83,0.00,,,0.00,WeatherDisplay:10.37,2013-01-11 08:19:00,
2013-01-11 03:24:00,33.7,28.8,30.37,SSE,153,1.1,1.1,82,0.00,,,0.00,WeatherDisplay:10.37,2013-01-11 08:24:00,
2013-01-11 03:29:00,33.8,28.9,30.36,SSE,159,3.5,3.5,82,0.00,,,0.00,WeatherDisplay:10.37,2013-01-11 08:29:00,
2013-01-11 03:34:00,33.9,29.0,30.36,SSE,166,7.0,7.0,82,0.00,,,0.00,WeatherDisplay:10.37,2013-01-11 08:34:00,
2013-01-11 03:39:00,34.0,29.1,30.35,SSE,153,3.5,3.5,82,0.00,,,0.00,WeatherDisplay:10.37,2013-01-11 08:39:00,
2013-01-11 03:44:00,34.1,29.2,30.35,SSW,212,4.0,4.0,82,0.00,,,0.00,WeatherDisplay:10.37,2013-01-11 08:44:00,
2013-01-11 03:49:00,34.2,29.0,30.35,South,188,3.5,3.5,81,0.00,,,0.00,WeatherDisplay:10.37,2013-01-11 08:49:00,
2013-01-11 03:54:00,34.2,29.0,30.35,SSW,201,3.0,3.0,81,0.00,,,0.00,WeatherDisplay:10.37,2013-01-11 08:54:00,
2013-01-11 03:59:00,34.1,28.9,30.35,South,176,1.1,1.3,81,0.00,,,0.00,WeatherDisplay:10.37,2013-01-11 08:59:00,
2013-01-11 04:04:00,34.0,29.1,30.34,SE,136,1.1,1.1,82,0.00,,,0.00,WeatherDisplay:10.37,2013-01-11 09:04:00,
2013-01-11 04:09:00,34.0,29.1,30.34,SE,141,1.1,1.1,82,0.00,,,0.00,WeatherDisplay:10.37,2013-01-11 09:09:00,
2013-01-11 04:14:00,33.8,28.9,30.33,SSE,167,2.3,2.3,82,0.00,,,0.00,WeatherDisplay:10.37,2013-01-11 09:14:00,
2013-01-11 04:19:00,33.8,28.9,30.33,SSW,198,2.3,2.3,82,0.00,,,0.00,WeatherDisplay:10.37,2013-01-11 09:19:00,
2013-01-11 04:24:00,33.9,29.0,30.33,South,173,2.3,2.3,82,0.00,,,0.00,WeatherDisplay:10.37,2013-01-11 09:24:00,
2013-01-11 04:29:00,34.0,29.1,30.32,SSW,208,3.5,3.5,82,0.00,,,0.00,WeatherDisplay:10.37,2013-01-11 09:29:00,
2013-01-11 04:34:00,34.1,29.2,30.32,SSW,211,2.3,2.3,82,0.00,,,0.00,WeatherDisplay:10.37,2013-01-11 09:34:00,
2013-01-11 04:39:00,34.2,29.3,30.32,South,179,2.3,2.3,82,0.00,,,0.00,WeatherDisplay:10.37,2013-01-11 09:39:00,
2013-01-11 04:44:00,34.3,29.1,30.32,SE,124,3.5,3.5,81,0.00,,,0.00,WeatherDisplay:10.37,2013-01-11 09:44:00,
2013-01-11 04:49:00,34.5,29.3,30.31,ESE,118,5.8,5.8,81,0.00,,,0.00,WeatherDisplay:10.37,2013-01-11 09:49:00,
2013-01-11 04:54:00,34.6,29.1,30.31,SSE,167,3.5,3.5,80,0.00,,,0.00,WeatherDisplay:10.37,2013-01-11 09:54:00,
2013-01-11 04:59:00,34.6,29.1,30.31,SE,141,3.5,3.5,80,0.00,,,0.00,WeatherDisplay:10.37,2013-01-11 09:59:00,
2013-01-11 05:04:00,34.5,29.3,30.30,SE,145,4.6,4.6,81,0.00,,,0.00,WeatherDisplay:10.37,2013-01-11 10:04:00,
2013-01-11 05:09:00,34.6,29.4,30.30,SSE,154,5.8,5.8,81,0.00,,,0.00,WeatherDisplay:10.37,2013-01-11 10:09:00,
2013-01-11 05:14:00,34.7,29.2,30.29,South,169,2.3,2.3,80,0.00,,,0.00,WeatherDisplay:10.37,2013-01-11 10:14:00,
2013-01-11 05:19:00,34.7,29.2,30.29,SE,138,3.5,3.5,80,0.00,,,0.00,WeatherDisplay:10.37,2013-01-11 10:19:00,
2013-01-11 05:24:00,34.8,29.3,30.29,SW,219,2.3,2.3,80,0.00,,,0.00,WeatherDisplay:10.37,2013-01-11 10:24:00,
2013-01-11 05:29:00,34.9,29.4,30.29,SSW,209,4.6,4.6,80,0.00,,,0.00,WeatherDisplay:10.37,2013-01-11 10:29:00,
2013-01-11 05:34:00,35.1,29.6,30.29,SSE,158,3.5,3.5,80,0.00,,,0.00,WeatherDisplay:10.37,2013-01-11 10:34:00,
2013-01-11 05:39:00,35.1,29.6,30.28,SSW,194,3.5,3.5,80,0.00,,,0.00,WeatherDisplay:10.37,2013-01-11 10:39:00,
2013-01-11 05:44:00,35.2,29.6,30.28,SSE,157,3.5,3.5,80,0.00,,,0.00,WeatherDisplay:10.37,2013-01-11 10:44:00,
2013-01-11 05:49:00,35.3,29.7,30.28,ESE,118,3.5,3.5,80,0.00,,,0.00,WeatherDisplay:10.37,2013-01-11 10:49:00,
2013-01-11 05:54:00,35.5,29.9,30.28,SSE,153,4.6,4.6,80,0.00,,,0.00,WeatherDisplay:10.37,2013-01-11 10:54:00,
2013-01-11 05:59:00,35.5,29.9,30.28,South,188,6.9,6.9,80,0.00,,,0.00,WeatherDisplay:10.37,2013-01-11 10:59:00,
2013-01-11 06:04:00,35.5,29.9,30.27,SSW,195,4.6,4.6,80,0.00,,,0.00,WeatherDisplay:10.37,2013-01-11 11:04:00,
2013-01-11 06:09:00,35.6,30.0,30.27,SSE,156,3.5,3.5,80,0.00,,,0.00,WeatherDisplay:10.37,2013-01-11 11:09:00,
2013-01-11 06:14:00,35.6,30.0,30.27,SSE,163,5.8,5.8,80,0.00,,,0.00,WeatherDisplay:10.37,2013-01-11 11:14:00,
2013-01-11 06:19:00,35.8,30.2,30.25,SE,127,3.5,3.5,80,0.00,,,0.00,WeatherDisplay:10.37,2013-01-11 11:19:00,
2013-01-11 06:24:00,35.8,29.9,30.26,SE,142,9.2,9.2,79,0.00,,,0.00,WeatherDisplay:10.37,2013-01-11 11:24:00,
2013-01-11 06:29:00,35.8,30.2,30.25,South,174,5.0,5.0,80,0.00,,,0.00,WeatherDisplay:10.37,2013-01-11 11:29:00,
2013-01-11 06:34:00,35.9,29.7,30.25,SSE,162,5.8,5.8,78,0.00,,,0.00,WeatherDisplay:10.37,2013-01-11 11:34:00,
2013-01-11 06:39:00,36.1,29.6,30.25,SSW,203,4.6,4.6,77,0.00,,,0.00,WeatherDisplay:10.37,2013-01-11 11:39:00,
2013-01-11 06:44:00,36.3,29.5,30.25,SE,135,3.5,3.5,76,0.00,,,0.00,WeatherDisplay:10.37,2013-01-11 11:44:00,
2013-01-11 06:49:00,36.3,29.8,30.25,SSE,167,3.5,3.5,77,0.00,,,0.00,WeatherDisplay:10.37,2013-01-11 11:49:00,
2013-01-11 06:54:00,36.5,29.3,30.25,South,172,3.5,3.5,75,0.00,,,0.00,WeatherDisplay:10.37,2013-01-11 11:54:00,
2013-01-11 06:59:00,36.6,29.4,30.25,SSW,200,3.5,3.5,75,0.00,,,0.00,WeatherDisplay:10.37,2013-01-11 11:59:00,
2013-01-11 07:04:00,36.8,29.3,30.25,South,184,3.5,3.5,74,0.00,,,0.00,WeatherDisplay:10.37,2013-01-11 12:04:00,
2013-01-11 07:09:00,36.8,29.3,30.24,SSE,148,4.6,4.6,74,0.00,CLR,,0.00,WeatherDisplay:10.37,2013-01-11 12:09:00,
2013-01-11 07:14:00,36.8,29.3,30.24,SSE,162,4.6,4.6,74,0.00,CLR,,0.00,WeatherDisplay:10.37,2013-01-11 12:14:00,
2013-01-11 07:19:00,36.8,29.3,30.24,SSW,193,5.8,5.8,74,0.00,CLR,,0.00,WeatherDisplay:10.37,2013-01-11 12:19:00,
2013-01-11 07:24:00,36.9,29.7,30.24,SSW,203,2.3,2.3,75,0.00,CLR,,0.00,WeatherDisplay:10.37,2013-01-11 12:24:00,
2013-01-11 07:29:00,36.9,29.4,30.23,South,169,4.6,4.6,74,0.00,CLR,,0.00,WeatherDisplay:10.37,2013-01-11 12:29:00,
2013-01-11 07:34:00,36.9,29.4,30.23,SSE,168,6.9,6.9,74,0.00,CLR,,0.00,WeatherDisplay:10.37,2013-01-11 12:34:00,
2013-01-11 07:39:00,37.0,29.5,30.22,South,176,3.5,3.5,74,0.00,CLR,,0.00,WeatherDisplay:10.37,2013-01-11 12:39:00,
2013-01-11 07:44:00,37.2,29.7,30.22,South,186,2.3,2.3,74,0.00,CLR,,0.00,WeatherDisplay:10.37,2013-01-11 12:44:00,
2013-01-11 07:49:00,37.3,29.4,30.22,SE,142,3.5,3.5,73,0.00,CLR,,0.00,WeatherDisplay:10.37,2013-01-11 12:49:00,
2013-01-11 07:54:00,37.4,29.5,30.22,SSE,166,3.5,3.5,73,0.00,CLR,,0.00,WeatherDisplay:10.37,2013-01-11 12:54:00,
2013-01-11 07:59:00,37.5,29.6,30.22,SSE,163,3.5,3.5,73,0.00,CLR,,0.00,WeatherDisplay:10.37,2013-01-11 12:59:00,
2013-01-11 08:04:00,37.7,29.5,30.22,WSW,239,4.0,4.0,72,0.00,CLR,,0.00,WeatherDisplay:10.37,2013-01-11 13:04:00,
2013-01-11 08:09:00,38.0,29.8,30.22,SSE,166,4.6,4.6,72,0.00,CLR,,0.00,WeatherDisplay:10.37,2013-01-11 13:09:00,
2013-01-11 08:14:00,38.1,29.5,30.22,SW,214,9.2,9.2,71,0.00,CLR,,0.00,WeatherDisplay:10.37,2013-01-11 13:14:00,
2013-01-11 08:19:00,38.2,30.0,30.22,SSE,153,3.5,3.5,72,0.00,CLR,,0.00,WeatherDisplay:10.37,2013-01-11 13:19:00,
2013-01-11 08:24:00,38.1,29.9,30.22,SSW,194,4.6,4.6,72,0.00,CLR,,0.00,WeatherDisplay:10.37,2013-01-11 13:24:00,
2013-01-11 08:29:00,38.2,30.0,30.22,SW,235,3.5,3.5,72,0.00,CLR,,0.00,WeatherDisplay:10.37,2013-01-11 13:29:00,
2013-01-11 08:34:00,38.1,29.9,30.22,SW,214,3.5,3.5,72,0.00,CLR,,0.00,WeatherDisplay:10.37,2013-01-11 13:34:00,
2013-01-11 08:39:00,38.4,29.8,30.21,South,172,4.6,4.6,71,0.00,CLR,,0.00,WeatherDisplay:10.37,2013-01-11 13:39:00,
2013-01-11 08:44:00,38.4,29.8,30.21,SE,129,4.6,4.6,71,0.00,CLR,,0.00,WeatherDisplay:10.37,2013-01-11 13:44:00,
2013-01-11 08:49:00,38.5,29.9,30.21,SW,232,5.8,5.8,71,0.00,CLR,,0.00,WeatherDisplay:10.37,2013-01-11 13:49:00,
2013-01-11 08:54:00,38.6,30.0,30.21,SE,144,5.8,5.8,71,0.00,CLR,,0.00,WeatherDisplay:10.37,2013-01-11 13:54:00,
2013-01-11 08:59:00,38.7,30.1,30.20,SSW,211,3.5,3.5,71,0.00,CLR,,0.00,WeatherDisplay:10.37,2013-01-11 13:59:00,
2013-01-11 09:04:00,38.7,30.1,30.20,SSW,212,3.5,3.5,71,0.00,CLR,,0.00,WeatherDisplay:10.37,2013-01-11 14:04:00,
2013-01-11 09:09:00,38.8,30.5,30.20,SW,218,2.3,2.3,72,0.00,CLR,,0.00,WeatherDisplay:10.37,2013-01-11 14:09:00,
2013-01-11 09:14:00,38.9,30.3,30.20,SW,226,6.9,6.9,71,0.00,CLR,,0.00,WeatherDisplay:10.37,2013-01-11 14:14:00,
2013-01-11 09:19:00,39.1,30.5,30.20,SSW,203,3.5,3.5,71,0.00,CLR,,0.00,WeatherDisplay:10.37,2013-01-11 14:19:00,
2013-01-11 09:24:00,39.2,30.2,30.20,West,270,4.6,4.6,70,0.00,CLR,,0.00,WeatherDisplay:10.37,2013-01-11 14:24:00,
2013-01-11 09:29:00,39.2,30.2,30.19,South,170,5.0,5.0,70,0.00,CLR,,0.00,WeatherDisplay:10.37,2013-01-11 14:29:00,
2013-01-11 09:35:00,39.4,30.8,30.19,SSW,198,4.6,4.6,71,0.00,CLR,,0.00,WeatherDisplay:10.37,2013-01-11 14:35:00,
2013-01-11 09:40:00,39.2,31.9,30.19,SSW,201,5.8,5.8,75,0.00,CLR,,0.00,WeatherDisplay:10.37,2013-01-11 14:40:00,
2013-01-11 09:45:00,38.9,32.6,30.19,SW,233,5.0,5.0,78,0.00,CLR,,0.00,WeatherDisplay:10.37,2013-01-11 14:45:00,
2013-01-11 09:50:00,38.4,32.8,30.18,SSE,152,3.5,3.5,80,0.01,RA,,0.01,WeatherDisplay:10.37,2013-01-11 14:50:00,
2013-01-11 09:55:00,38.1,33.1,30.19,SSW,203,5.8,5.8,82,0.01,RA,,0.01,WeatherDisplay:10.37,2013-01-11 14:55:00,
2013-01-11 10:00:00,37.7,33.3,30.19,SSW,193,3.5,3.5,84,0.01,CLR,,0.01,WeatherDisplay:10.37,2013-01-11 15:00:00,
2013-01-11 10:05:00,37.8,33.1,30.19,SSE,154,6.9,6.9,83,0.01,CLR,,0.01,WeatherDisplay:10.37,2013-01-11 15:05:00,
2013-01-11 10:10:00,38.0,33.0,30.18,SE,141,3.5,3.5,82,0.01,CLR,,0.01,WeatherDisplay:10.37,2013-01-11 15:10:00,
2013-01-11 10:15:00,38.2,32.6,30.18,SW,215,4.6,4.6,80,0.01,CLR,,0.01,WeatherDisplay:10.37,2013-01-11 15:15:00,
2013-01-11 10:20:00,38.5,32.6,30.18,SSE,156,4.0,4.0,79,0.01,CLR,,0.01,WeatherDisplay:10.37,2013-01-11 15:20:00,
2013-01-11 10:25:00,38.8,32.5,30.17,SE,130,5.8,5.8,78,0.01,CLR,,0.01,WeatherDisplay:10.37,2013-01-11 15:25:00,
2013-01-11 10:30:00,39.0,32.4,30.17,SW,217,5.8,5.8,77,0.01,CLR,,0.01,WeatherDisplay:10.37,2013-01-11 15:30:00,
2013-01-11 10:35:00,39.4,32.1,30.17,South,190,4.0,4.0,75,0.01,CLR,,0.01,WeatherDisplay:10.37,2013-01-11 15:35:00,
2013-01-11 10:40:00,39.7,32.1,30.17,SW,225,4.6,4.6,74,0.01,CLR,,0.01,WeatherDisplay:10.37,2013-01-11 15:40:00,
2013-01-11 10:45:00,39.8,32.2,30.16,SSE,165,5.8,5.8,74,0.01,CLR,,0.01,WeatherDisplay:10.37,2013-01-11 15:45:00,
2013-01-11 10:50:00,40.0,32.0,30.16,SSW,212,3.5,3.5,73,0.00,CLR,,0.01,WeatherDisplay:10.37,2013-01-11 15:50:00,
2013-01-11 10:55:00,40.2,32.2,30.16,ESE,103,3.5,3.5,73,0.00,CLR,,0.01,WeatherDisplay:10.37,2013-01-11 15:55:00,
2013-01-11 11:00:00,40.3,32.3,30.15,SSE,148,4.6,4.6,73,0.00,CLR,,0.01,WeatherDisplay:10.37,2013-01-11 16:00:00,
2013-01-11 11:05:00,40.3,32.3,30.15,SSW,198,4.6,4.6,73,0.00,CLR,,0.01,WeatherDisplay:10.37,2013-01-11 16:05:00,
2013-01-11 11:10:00,40.3,32.3,30.14,South,189,5.8,5.8,73,0.00,CLR,,0.01,WeatherDisplay:10.37,2013-01-11 16:10:00,
2013-01-11 11:15:00,40.4,32.1,30.13,SSW,200,5.8,5.8,72,0.00,CLR,,0.01,WeatherDisplay:10.37,2013-01-11 16:15:00,
2013-01-11 11:20:00,40.6,32.3,30.13,SSW,210,4.0,4.0,72,0.00,CLR,,0.01,WeatherDisplay:10.37,2013-01-11 16:20:00,
2013-01-11 11:25:00,40.9,31.9,30.12,South,172,5.8,5.8,70,0.00,CLR,,0.01,WeatherDisplay:10.37,2013-01-11 16:25:00,
2013-01-11 11:30:00,41.3,32.2,30.12,SSW,211,6.9,6.9,70,0.00,CLR,,0.01,WeatherDisplay:10.37,2013-01-11 16:30:00,
2013-01-11 11:35:00,41.6,32.2,30.11,SSE,160,6.9,6.9,69,0.00,CLR,,0.01,WeatherDisplay:10.37,2013-01-11 16:35:00,
2013-01-11 11:40:00,41.8,32.4,30.11,South,180,4.6,4.6,69,0.00,CLR,,0.01,WeatherDisplay:10.37,2013-01-11 16:40:00,
2013-01-11 11:45:00,41.7,32.3,30.10,SSW,201,3.5,3.5,69,0.00,CLR,,0.01,WeatherDisplay:10.37,2013-01-11 16:45:00,
2013-01-11 11:50:00,41.8,32.0,30.10,SSE,148,8.0,8.0,68,0.00,CLR,,0.01,WeatherDisplay:10.37,2013-01-11 16:50:00,
2013-01-11 11:56:00,41.9,32.1,30.09,South,187,3.5,3.5,68,0.00,CLR,,0.01,WeatherDisplay:10.37,2013-01-11 16:56:00,
2013-01-11 12:01:00,41.9,31.7,30.09,SE,139,3.5,3.5,67,0.00,CLR,,0.01,WeatherDisplay:10.37,2013-01-11 17:01:00,
2013-01-11 12:06:00,41.7,31.9,30.09,South,174,4.6,4.6,68,0.00,CLR,,0.01,WeatherDisplay:10.37,2013-01-11 17:06:00,
2013-01-11 12:11:00,41.0,33.7,30.09,SSW,207,4.6,4.6,75,0.01,RA,,0.02,WeatherDisplay:10.37,2013-01-11 17:11:00,
2013-01-11 12:16:00,40.2,34.2,30.08,WSW,242,3.5,3.5,79,0.02,RA,,0.03,WeatherDisplay:10.37,2013-01-11 17:16:00,
2013-01-11 12:21:00,39.7,35.0,30.08,SW,214,3.5,3.5,83,0.03,RA,,0.04,WeatherDisplay:10.37,2013-01-11 17:21:00,
2013-01-11 12:26:00,39.3,34.9,30.07,SSW,211,5.8,5.8,84,0.03,RA,,0.04,WeatherDisplay:10.37,2013-01-11 17:26:00,
2013-01-11 12:31:00,39.1,35.0,30.07,SW,217,6.9,6.9,85,0.03,CLR,,0.04,WeatherDisplay:10.37,2013-01-11 17:31:00,
2013-01-11 12:36:00,38.9,35.1,30.06,SE,143,3.5,3.5,86,0.04,RA,,0.05,WeatherDisplay:10.37,2013-01-11 17:36:00,
2013-01-11 12:41:00,38.9,34.8,30.05,ESE,108,4.6,4.6,85,0.04,RA,,0.05,WeatherDisplay:10.37,2013-01-11 17:41:00,
2013-01-11 12:46:00,39.1,34.7,30.06,SSW,206,3.5,3.5,84,0.04,CLR,,0.05,WeatherDisplay:10.37,2013-01-11 17:46:00,
2013-01-11 12:51:00,39.2,34.5,30.05,SSW,194,9.2,9.2,83,0.04,CLR,,0.05,WeatherDisplay:10.37,2013-01-11 17:51:00,
2013-01-11 12:56:00,39.3,34.3,30.05,SSE,166,3.5,3.5,82,0.04,CLR,,0.05,WeatherDisplay:10.37,2013-01-11 17:56:00,
2013-01-11 13:01:00,39.5,34.2,30.05,SSE,155,4.6,4.6,81,0.04,CLR,,0.05,WeatherDisplay:10.37,2013-01-11 18:01:00,
2013-01-11 13:06:00,39.7,34.0,30.04,WSW,252,3.5,3.5,80,0.04,CLR,,0.05,WeatherDisplay:10.37,2013-01-11 18:06:00,
2013-01-11 13:11:00,40.1,34.1,30.04,SW,214,4.6,4.6,79,0.03,CLR,,0.05,WeatherDisplay:10.37,2013-01-11 18:11:00,
2013-01-11 13:16:00,40.4,33.8,30.04,SE,135,5.8,5.8,77,0.02,CLR,,0.05,WeatherDisplay:10.37,2013-01-11 18:16:00,
2013-01-11 13:21:00,40.6,34.0,30.04,SSW,201,3.5,3.5,77,0.01,CLR,,0.05,WeatherDisplay:10.37,2013-01-11 18:21:00,
2013-01-11 13:26:00,40.6,34.0,30.04,SE,132,3.5,3.5,77,0.01,CLR,,0.05,WeatherDisplay:10.37,2013-01-11 18:26:00,
2013-01-11 13:31:00,40.7,33.7,30.04,SSW,203,9.2,9.2,76,0.01,CLR,,0.05,WeatherDisplay:10.37,2013-01-11 18:31:00,
2013-01-11 13:36:00,40.7,33.4,30.03,SSE,167,8.1,8.1,75,0.00,CLR,,0.05,WeatherDisplay:10.37,2013-01-11 18:36:00,
2013-01-11 13:41:00,40.8,33.5,30.03,SSW,207,3.5,3.5,75,0.00,CLR,,0.05,WeatherDisplay:10.37,2013-01-11 18:41:00,
2013-01-11 13:46:00,40.7,33.7,30.03,SE,146,6.9,6.9,76,0.00,CLR,,0.05,WeatherDisplay:10.37,2013-01-11 18:46:00,
2013-01-11 13:51:00,40.9,33.6,30.02,SE,131,7.0,7.0,75,0.00,CLR,,0.05,WeatherDisplay:10.37,2013-01-11 18:51:00,
2013-01-11 13:56:00,40.9,33.2,30.02,South,170,6.9,6.9,74,0.00,CLR,,0.05,WeatherDisplay:10.37,2013-01-11 18:56:00,
2013-01-11 14:01:00,40.8,33.5,30.02,SE,136,4.0,4.0,75,0.00,CLR,,0.05,WeatherDisplay:10.37,2013-01-11 19:01:00,
2013-01-11 14:06:00,40.8,33.5,30.02,SSE,165,3.5,3.5,75,0.00,CLR,,0.05,WeatherDisplay:10.37,2013-01-11 19:06:00,
2013-01-11 14:11:00,40.8,33.2,30.01,SSW,210,6.9,6.9,74,0.00,CLR,,0.05,WeatherDisplay:10.37,2013-01-11 19:11:00,
2013-01-11 14:16:00,40.9,33.2,30.01,East,98,3.5,3.5,74,0.00,CLR,,0.05,WeatherDisplay:10.37,2013-01-11 19:16:00,
2013-01-11 14:21:00,41.2,33.5,30.01,ESE,117,5.8,5.8,74,0.00,CLR,,0.05,WeatherDisplay:10.37,2013-01-11 19:21:00,
2013-01-11 14:26:00,41.4,33.7,30.01,SSW,200,5.8,5.8,74,0.00,CLR,,0.05,WeatherDisplay:10.37,2013-01-11 19:26:00,
2013-01-11 14:31:00,41.6,33.9,30.01,SW,219,4.6,4.6,74,0.00,CLR,,0.05,WeatherDisplay:10.37,2013-01-11 19:31:00,
2013-01-11 14:36:00,41.7,33.3,30.01,SSW,209,8.1,8.1,72,0.00,CLR,,0.05,WeatherDisplay:10.37,2013-01-11 19:36:00,
2013-01-11 14:41:00,41.8,33.4,30.01,South,172,9.2,9.2,72,0.00,CLR,,0.05,WeatherDisplay:10.37,2013-01-11 19:41:00,
2013-01-11 14:46:00,41.9,33.5,30.01,SSE,153,4.0,4.0,72,0.00,CLR,,0.05,WeatherDisplay:10.37,2013-01-11 19:46:00,
2013-01-11 14:51:00,41.8,33.4,30.01,SW,232,8.0,8.0,72,0.00,CLR,,0.05,WeatherDisplay:10.37,2013-01-11 19:51:00,
2013-01-11 14:57:00,41.7,33.7,30.01,SE,138,9.2,9.2,73,0.00,CLR,,0.05,WeatherDisplay:10.37,2013-01-11 19:57:00,
2013-01-11 15:02:00,41.5,33.8,30.01,South,190,5.8,5.8,74,0.00,CLR,,0.05,WeatherDisplay:10.37,2013-01-11 20:02:00,
2013-01-11 15:07:00,41.3,34.0,30.01,SSE,149,4.6,4.6,75,0.00,CLR,,0.05,WeatherDisplay:10.37,2013-01-11 20:07:00,
2013-01-11 15:12:00,41.2,34.9,30.01,South,179,3.5,3.5,78,0.00,CLR,,0.05,WeatherDisplay:10.37,2013-01-11 20:12:00,
2013-01-11 15:17:00,40.8,35.4,30.01,SSE,156,3.5,3.5,81,0.00,CLR,,0.05,WeatherDisplay:10.37,2013-01-11 20:17:00,
2013-01-11 15:22:00,40.2,35.4,30.01,East,101,10.4,10.4,83,0.01,RA,,0.06,WeatherDisplay:10.37,2013-01-11 20:22:00,
2013-01-11 15:27:00,39.6,35.8,30.01,South,176,3.5,3.5,86,0.01,RA,,0.06,WeatherDisplay:10.37,2013-01-11 20:27:00,
2013-01-11 15:32:00,39.3,35.8,30.01,SW,226,3.5,3.5,87,0.02,RA,,0.07,WeatherDisplay:10.37,2013-01-11 20:32:00,
2013-01-11 15:37:00,39.0,36.0,30.00,South,173,9.2,9.2,89,0.03,RA,,0.08,WeatherDisplay:10.37,2013-01-11 20:37:00,
2013-01-11 15:42:00,38.9,35.9,30.00,SW,221,3.5,3.5,89,0.03,RA,,0.08,WeatherDisplay:10.37,2013-01-11 20:42:00,
2013-01-11 15:47:00,38.7,36.0,30.00,SE,135,8.1,8.1,90,0.04,RA,,0.09,WeatherDisplay:10.37,2013-01-11 20:47:00,
2013-01-11 15:52:00,38.7,36.0,30.00,WSW,243,4.6,4.6,90,0.04,RA,,0.09,WeatherDisplay:10.37,2013-01-11 20:52:00,
2013-01-11 15:57:00,38.6,35.9,29.99,SW,215,8.1,8.1,90,0.05,RA,,0.10,WeatherDisplay:10.37,2013-01-11 20:57:00,
2013-01-11 16:02:00,38.7,36.0,29.99,SSW,206,9.2,9.2,90,0.06,RA,,0.11,WeatherDisplay:10.37,2013-01-11 21:02:00,
2013-01-11 16:07:00,38.8,36.1,29.98,SSW,195,5.8,5.8,90,0.07,RA,,0.12,WeatherDisplay:10.37,2013-01-11 21:07:00,
2013-01-11 16:12:00,38.7,36.0,29.97,South,191,4.6,4.6,90,0.08,RA,,0.13,WeatherDisplay:10.37,2013-01-11 21:12:00,
2013-01-11 16:17:00,38.6,36.2,29.95,SSW,193,3.5,3.5,91,0.09,RA,,0.14,WeatherDisplay:10.37,2013-01-11 21:17:00,
2013-01-11 16:22:00,38.4,35.7,29.95,ENE,70,5.0,5.0,90,0.08,RA,,0.14,WeatherDisplay:10.37,2013-01-11 21:22:00,
2013-01-11 16:27:00,38.4,36.0,29.96,South,190,4.6,4.6,91,0.09,RA,,0.15,WeatherDisplay:10.37,2013-01-11 21:27:00,
2013-01-11 16:32:00,38.3,35.9,29.97,WSW,257,6.9,6.9,91,0.08,RA,,0.15,WeatherDisplay:10.37,2013-01-11 21:32:00,
2013-01-11 16:37:00,38.3,35.9,29.98,West,271,3.5,3.5,91,0.07,,,0.15,WeatherDisplay:10.37,2013-01-11 21:37:00,
2013-01-11 16:42:00,38.3,35.9,29.98,SW,236,3.5,3.5,91,0.07,,,0.15,WeatherDisplay:10.37,2013-01-11 21:42:00,
2013-01-11 16:47:00,38.2,35.8,29.98,SSW,197,9.2,9.2,91,0.06,,,0.15,WeatherDisplay:10.37,2013-01-11 21:47:00,
2013-01-11 16:52:00,38.1,35.4,29.99,WSW,243,8.0,8.0,90,0.06,,,0.15,WeatherDisplay:10.37,2013-01-11 21:52:00,
2013-01-11 16:57:00,38.1,35.4,30.00,SSW,192,3.5,3.5,90,0.05,,,0.15,WeatherDisplay:10.37,2013-01-11 21:57:00,
2013-01-11 17:02:00,38.4,35.7,30.00,SW,228,10.4,10.4,90,0.04,,,0.15,WeatherDisplay:10.37,2013-01-11 22:02:00,
2013-01-11 17:07:00,38.6,35.6,29.99,SE,132,5.0,5.0,89,0.03,,,0.15,WeatherDisplay:10.37,2013-01-11 22:07:00,
2013-01-11 17:12:00,38.6,35.6,29.99,SSE,153,8.1,8.1,89,0.02,,,0.15,WeatherDisplay:10.37,2013-01-11 22:12:00,
2013-01-11 17:17:00,38.6,35.6,29.99,South,179,3.5,3.5,89,0.01,,,0.15,WeatherDisplay:10.37,2013-01-11 22:17:00,
2013-01-11 17:22:00,38.8,35.8,29.99,SSW,208,3.5,3.5,89,0.01,,,0.15,WeatherDisplay:10.37,2013-01-11 22:22:00,
2013-01-11 17:27:00,38.9,35.9,29.99,SSW,198,3.5,3.5,89,0.00,,,0.15,WeatherDisplay:10.37,2013-01-11 22:27:00,
2013-01-11 17:32:00,38.9,35.9,30.00,SSW,210,3.5,3.5,89,0.00,,,0.15,WeatherDisplay:10.37,2013-01-11 22:32:00,
2013-01-11 17:37:00,39.0,35.7,29.99,SE,129,4.0,4.0,88,0.00,,,0.15,WeatherDisplay:10.37,2013-01-11 22:37:00,
2013-01-11 17:42:00,38.9,35.9,29.99,SSW,204,3.5,3.5,89,0.00,,,0.15,WeatherDisplay:10.37,2013-01-11 22:42:00,
2013-01-11 17:47:00,38.9,35.9,29.99,SW,218,3.5,3.5,89,0.00,,,0.15,WeatherDisplay:10.37,2013-01-11 22:47:00,
2013-01-11 17:52:00,38.9,35.9,29.99,SW,229,4.0,4.0,89,0.00,,,0.15,WeatherDisplay:10.37,2013-01-11 22:52:00,
2013-01-11 17:57:00,38.9,35.9,30.00,SSW,200,3.5,3.5,89,0.00,,,0.15,WeatherDisplay:10.37,2013-01-11 22:57:00,
2013-01-11 18:02:00,39.0,35.7,30.00,SW,222,3.5,3.5,88,0.00,,,0.15,WeatherDisplay:10.37,2013-01-11 23:02:00,
2013-01-11 18:07:00,39.0,35.7,30.01,SW,233,2.3,2.3,88,0.00,,,0.15,WeatherDisplay:10.37,2013-01-11 23:07:00,
2013-01-11 18:12:00,38.9,35.6,30.01,SSW,200,3.5,3.5,88,0.00,,,0.15,WeatherDisplay:10.37,2013-01-11 23:12:00,
2013-01-11 18:17:00,38.9,35.9,30.01,South,182,3.5,3.5,89,0.00,,,0.15,WeatherDisplay:10.37,2013-01-11 23:17:00,
2013-01-11 18:22:00,39.0,35.7,30.01,SSE,167,3.5,3.5,88,0.00,,,0.15,WeatherDisplay:10.37,2013-01-11 23:22:00,
2013-01-11 18:27:00,39.1,35.8,30.01,SSE,161,3.5,3.5,88,0.00,,,0.15,WeatherDisplay:10.37,2013-01-11 23:27:00,
2013-01-11 18:32:00,39.2,35.9,30.00,South,185,3.5,3.5,88,0.00,,,0.15,WeatherDisplay:10.37,2013-01-11 23:32:00,
2013-01-11 18:37:00,39.3,36.0,30.00,South,174,5.8,5.8,88,0.00,,,0.15,WeatherDisplay:10.37,2013-01-11 23:37:00,
2013-01-11 18:42:00,39.3,36.0,30.00,SE,141,3.5,3.5,88,0.00,,,0.15,WeatherDisplay:10.37,2013-01-11 23:42:00,
2013-01-11 18:47:00,39.5,36.2,30.00,SW,224,3.5,3.5,88,0.00,,,0.15,WeatherDisplay:10.37,2013-01-11 23:47:00,
2013-01-11 18:52:00,39.5,36.2,30.01,SSW,203,2.3,2.3,88,0.00,,,0.15,WeatherDisplay:10.37,2013-01-11 23:52:00,
2013-01-11 18:57:00,39.6,36.3,30.01,South,188,3.0,3.0,88,0.00,,,0.15,WeatherDisplay:10.37,2013-01-11 23:57:00,
2013-01-11 19:03:00,39.7,36.4,30.01,SSW,210,9.2,9.2,88,0.00,,,0.15,WeatherDisplay:10.37,2013-01-12 00:03:00,
2013-01-11 19:08:00,39.8,36.2,30.01,SW,215,5.8,5.8,87,0.00,,,0.15,WeatherDisplay:10.37,2013-01-12 00:08:00,
2013-01-11 19:13:00,39.8,36.2,30.01,SW,215,3.5,3.5,87,0.00,,,0.15,WeatherDisplay:10.37,2013-01-12 00:13:00,
2013-01-11 19:18:00,39.9,36.3,30.00,SSW,207,4.0,4.0,87,0.00,,,0.15,WeatherDisplay:10.37,2013-01-12 00:18:00,
2013-01-11 19:23:00,39.9,36.3,30.00,SSE,149,3.5,3.5,87,0.00,,,0.15,WeatherDisplay:10.37,2013-01-12 00:23:00,
2013-01-11 19:28:00,39.9,36.3,30.00,SSW,209,4.6,4.6,87,0.00,,,0.15,WeatherDisplay:10.37,2013-01-12 00:28:00,
2013-01-11 19:33:00,40.0,36.4,30.00,SE,139,5.8,5.8,87,0.00,,,0.15,WeatherDisplay:10.37,2013-01-12 00:33:00,
2013-01-11 19:38:00,40.2,36.6,30.00,SE,145,3.5,3.5,87,0.00,,,0.15,WeatherDisplay:10.37,2013-01-12 00:38:00,
2013-01-11 19:43:00,40.1,36.5,30.00,SW,226,3.5,3.5,87,0.00,,,0.15,WeatherDisplay:10.37,2013-01-12 00:43:00,
2013-01-11 19:48:00,39.9,36.3,30.00,SE,131,3.5,3.5,87,0.00,,,0.15,WeatherDisplay:10.37,2013-01-12 00:48:00,
2013-01-11 19:53:00,40.1,36.5,30.00,SW,227,9.2,9.2,87,0.00,,,0.15,WeatherDisplay:10.37,2013-01-12 00:53:00,
2013-01-11 19:58:00,40.2,36.6,30.00,SSE,148,3.5,3.5,87,0.00,,,0.15,WeatherDisplay:10.37,2013-01-12 00:58:00,
2013-01-11 20:03:00,40.2,36.6,30.00,SSW,207,3.5,3.5,87,0.00,,,0.15,WeatherDisplay:10.37,2013-01-12 01:03:00,
2013-01-11 20:08:00,40.1,36.5,30.00,SSW,195,3.5,3.5,87,0.00,,,0.15,WeatherDisplay:10.37,2013-01-12 01:08:00,
2013-01-11 20:13:00,40.0,36.4,30.00,South,189,2.3,2.3,87,0.00,,,0.15,WeatherDisplay:10.37,2013-01-12 01:13:00,
2013-01-11 20:18:00,39.9,36.6,29.99,South,191,6.9,6.9,88,0.00,,,0.15,WeatherDisplay:10.37,2013-01-12 01:18:00,
2013-01-11 20:23:00,40.1,36.8,30.00,SSE,167,5.8,5.8,88,0.00,,,0.15,WeatherDisplay:10.37,2013-01-12 01:23:00,
2013-01-11 20:28:00,40.2,36.6,30.00,SSE,155,3.5,3.5,87,0.00,,,0.15,WeatherDisplay:10.37,2013-01-12 01:28:00,
2013-01-11 20:33:00,40.1,36.5,30.00,SW,221,3.5,3.5,87,0.00,,,0.15,WeatherDisplay:10.37,2013-01-12 01:33:00,
2013-01-11 20:38:00,40.2,36.6,30.00,South,188,3.5,3.5,87,0.00,,,0.15,WeatherDisplay:10.37,2013-01-12 01:38:00,
2013-01-11 20:43:00,40.4,37.1,30.00,SSW,212,4.6,4.6,88,0.00,,,0.15,WeatherDisplay:10.37,2013-01-12 01:43:00,
2013-01-11 20:48:00,40.4,36.8,30.01,South,190,2.3,2.3,87,0.00,,,0.15,WeatherDisplay:10.37,2013-01-12 01:48:00,
2013-01-11 20:53:00,40.3,37.0,30.01,SW,219,3.5,3.5,88,0.00,,,0.15,WeatherDisplay:10.37,2013-01-12 01:53:00,
2013-01-11 20:58:00,40.3,37.0,30.01,South,173,3.5,3.5,88,0.00,,,0.15,WeatherDisplay:10.37,2013-01-12 01:58:00,
2013-01-11 21:03:00,40.4,37.1,30.01,ESE,120,3.5,3.5,88,0.00,,,0.15,WeatherDisplay:10.37,2013-01-12 02:03:00,
2013-01-11 21:08:00,40.3,37.0,30.02,South,172,4.6,4.6,88,0.00,,,0.15,WeatherDisplay:10.37,2013-01-12 02:08:00,
2013-01-11 21:13:00,40.3,37.3,30.01,SSW,207,3.5,3.5,89,0.00,,,0.15,WeatherDisplay:10.37,2013-01-12 02:13:00,
2013-01-11 21:18:00,40.1,37.1,30.02,SSE,167,5.0,5.0,89,0.00,,,0.15,WeatherDisplay:10.37,2013-01-12 02:18:00,
2013-01-11 21:23:00,40.1,37.4,30.01,SSW,211,4.0,4.0,90,0.00,,,0.15,WeatherDisplay:10.37,2013-01-12 02:23:00,
2013-01-11 21:28:00,40.0,37.3,30.01,South,179,3.5,3.5,90,0.00,,,0.15,WeatherDisplay:10.37,2013-01-12 02:28:00,
2013-01-11 21:33:00,40.1,37.4,30.01,ESE,120,3.5,3.5,90,0.00,,,0.15,WeatherDisplay:10.37,2013-01-12 02:33:00,
2013-01-11 21:38:00,40.1,37.4,30.01,SSW,208,2.3,2.3,90,0.00,,,0.15,WeatherDisplay:10.37,2013-01-12 02:38:00,
2013-01-11 21:43:00,40.1,37.4,30.01,SSW,210,2.3,2.3,90,0.00,,,0.15,WeatherDisplay:10.37,2013-01-12 02:43:00,
2013-01-11 21:48:00,40.1,37.4,30.01,SSE,149,2.3,2.3,90,0.00,,,0.15,WeatherDisplay:10.37,2013-01-12 02:48:00,
2013-01-11 21:53:00,40.1,37.4,30.00,SSW,195,4.6,4.6,90,0.00,,,0.15,WeatherDisplay:10.37,2013-01-12 02:53:00,
2013-01-11 21:58:00,40.3,37.3,30.00,SSW,205,3.5,3.5,89,0.00,,,0.15,WeatherDisplay:10.37,2013-01-12 02:58:00,
2013-01-11 22:03:00,40.2,37.2,30.00,SSW,197,4.0,4.0,89,0.00,,,0.15,WeatherDisplay:10.37,2013-01-12 03:03:00,
2013-01-11 22:08:00,40.1,37.1,30.00,SSE,160,3.5,3.5,89,0.00,,,0.15,WeatherDisplay:10.37,2013-01-12 03:08:00,
2013-01-11 22:13:00,40.1,37.1,30.00,South,173,8.0,8.0,89,0.00,,,0.15,WeatherDisplay:10.37,2013-01-12 03:13:00,
2013-01-11 22:18:00,40.1,37.1,30.00,SSW,210,4.0,4.0,89,0.00,,,0.15,WeatherDisplay:10.37,2013-01-12 03:18:00,
2013-01-11 22:23:00,40.1,37.1,30.00,SSW,193,3.5,3.5,89,0.00,,,0.15,WeatherDisplay:10.37,2013-01-12 03:23:00,
2013-01-11 22:28:00,40.3,37.3,30.01,SW,217,3.5,3.5,89,0.00,,,0.15,WeatherDisplay:10.37,2013-01-12 03:28:00,
2013-01-11 22:33:00,40.3,37.0,30.01,SE,133,3.5,3.5,88,0.00,,,0.15,WeatherDisplay:10.37,2013-01-12 03:33:00,
2013-01-11 22:38:00,40.4,37.1,30.01,SSW,197,4.6,4.6,88,0.00,,,0.15,WeatherDisplay:10.37,2013-01-12 03:38:00,
2013-01-11 22:43:00,40.5,37.2,30.00,South,186,3.5,3.5,88,0.00,,,0.15,WeatherDisplay:10.37,2013-01-12 03:43:00,
2013-01-11 22:49:00,40.5,37.2,30.01,SSW,200,3.5,3.5,88,0.00,,,0.15,WeatherDisplay:10.37,2013-01-12 03:49:00,
2013-01-11 22:54:00,40.4,37.4,30.01,SSW,202,4.6,4.6,89,0.00,,,0.15,WeatherDisplay:10.37,2013-01-12 03:54:00,
2013-01-11 22:59:00,40.5,37.2,30.00,SSW,204,5.8,5.8,88,0.00,,,0.15,WeatherDisplay:10.37,2013-01-12 03:59:00,
2013-01-11 23:04:00,40.7,37.4,30.01,SW,226,2.3,2.3,88,0.00,,,0.15,WeatherDisplay:10.37,2013-01-12 04:04:00,
2013-01-11 23:09:00,40.7,37.4,30.01,South,186,3.5,3.5,88,0.00,,,0.15,WeatherDisplay:10.37,2013-01-12 04:09:00,
2013-01-11 23:14:00,40.7,37.4,30.01,SE,146,3.5,3.5,88,0.00,,,0.15,WeatherDisplay:10.37,2013-01-12 04:14:00,
2013-01-11 23:19:00,40.6,37.3,30.01,SW,235,3.5,3.5,88,0.00,,,0.15,WeatherDisplay:10.37,2013-01-12 04:19:00,
2013-01-11 23:24:00,40.7,37.4,30.02,SSW,200,3.5,3.5,88,0.00,,,0.15,WeatherDisplay:10.37,2013-01-12 04:24:00,
2013-01-11 23:29:00,40.7,37.4,30.01,SE,131,3.5,3.5,88,0.00,,,0.15,WeatherDisplay:10.37,2013-01-12 04:29:00,
2013-01-11 23:34:00,40.8,37.8,30.00,SSW,195,2.3,2.3,89,0.00,,,0.15,WeatherDisplay:10.37,2013-01-12 04:34:00,
2013-01-11 23:39:00,40.8,37.5,30.00,SSE,153,2.3,2.3,88,0.00,,,0.15,WeatherDisplay:10.37,2013-01-12 04:39:00,
2013-01-11 23:44:00,40.7,37.4,30.01,SSW,204,3.5,3.5,88,0.00,,,0.15,WeatherDisplay:10.37,2013-01-12 04:44:00,
2013-01-11 23:49:00,40.7,37.4,30.00,SSW,197,2.3,2.3,88,0.00,,,0.15,WeatherDisplay:10.37,2013-01-12 04:49:00,
2013-01-11 23:54:00,40.8,37.8,30.00,SSW,201,2.3,2.3,89,0.00,,,0.15,WeatherDisplay:10.37,2013-01-12 04:54:00,
2013-01-11 23:59:00,40.9,37.9,30.00,SSW,207,2.3,2.3,89,0.00,,,0.15,WeatherDisplay:10.37,2013-01-12 04:59:00,